Airlie, Virginia
Current Conditions -  °F | °C
As of 10:55 PM on Thursday 27 Nov 2014 (Local Time) from KHWY Reporting Station
Clear Clear  
Wind Chill: 28°   Ceiling: Unl
Heat Index: 34°   Visibility: 10mi
Dew Point: 31°   Wind: 8mph
Humidity: 88%   Direction: 310°NW
Pressure: 30.19"   Gusts: NA
Location:  38.6876°N, 77.819°W
Report Text: KHWY 280355Z AUTO 31007KT 10SM CLR 01/00 A3019 RMK AO2 T00131005
Loading
Personal Weather Stations






























Interactive Weather Map New forecast layout! Learn more

10-Day Weather Forecast

Advertisements
Track Severe Weather on mobile